Time;durP1;ratioP1;P1;durP2;ratioP2;P2;SDS_P1;SDS_P2;PMS_P1;PMS_P2;Temp;Humidity;BMP_temperature;BMP_pressure;BME280_temperature;BME280_humidity;BME280_pressure;Samples;Min_cycle;Max_cycle;Signal;HPM_P1;HPM_P2
2023/07/16 00:01:55;;;;;;;1.20;0.80;;;;;;;19.82;100.00;100625.22;4920386;29;20245;-74
2023/07/16 00:04:21;;;;;;;1.60;1.08;;;;;;;19.73;100.00;100633.50;4926636;29;20317;-75
2023/07/16 00:06:48;;;;;;;2.50;1.35;;;;;;;19.73;100.00;100655.84;4920987;29;22570;-75
2023/07/16 00:09:15;;;;;;;1.50;1.02;;;;;;;19.68;100.00;100683.72;4932012;28;20230;-75
2023/07/16 00:11:42;;;;;;;3.83;1.95;;;;;;;19.73;100.00;100705.94;4912845;29;20330;-75
2023/07/16 00:14:11;;;;;;;1.63;1.20;;;;;;;19.63;100.00;100705.28;4906449;29;20245;-74
2023/07/16 00:16:38;;;;;;;2.83;1.77;;;;;;;19.62;100.00;100697.28;4924459;28;20582;-75
2023/07/16 00:19:04;;;;;;;1.50;1.10;;;;;;;19.61;100.00;100696.41;4925276;29;20238;-74
2023/07/16 00:21:31;;;;;;;3.05;1.65;;;;;;;19.59;100.00;100682.13;4919457;29;20250;-75
2023/07/16 00:23:59;;;;;;;1.33;1.00;;;;;;;19.54;100.00;100676.00;4921533;29;20249;-75
2023/07/16 00:26:25;;;;;;;2.13;1.50;;;;;;;19.49;100.00;100689.44;4924424;29;20240;-74
2023/07/16 00:28:52;;;;;;;1.25;1.02;;;;;;;19.41;100.00;100674.47;4919283;29;20246;-75
2023/07/16 00:31:18;;;;;;;1.10;0.90;;;;;;;19.48;100.00;100689.50;4925464;29;20226;-75
2023/07/16 00:33:45;;;;;;;6.15;2.72;;;;;;;19.35;100.00;100664.75;4948260;23;20247;-78
2023/07/16 00:36:12;;;;;;;1.52;1.08;;;;;;;19.36;100.00;100644.19;4943709;28;20289;-79
2023/07/16 00:38:42;;;;;;;6.53;2.75;;;;;;;19.33;100.00;100621.00;4945643;28;20229;-79
2023/07/16 00:41:09;;;;;;;1.73;1.25;;;;;;;19.28;100.00;100627.38;4949293;28;20236;-80
2023/07/16 00:43:36;;;;;;;21.00;6.05;;;;;;;19.32;100.00;100658.59;4946606;28;20270;-79
2023/07/16 00:46:03;;;;;;;2.13;1.45;;;;;;;19.38;100.00;100651.28;4953016;28;20233;-79
2023/07/16 00:48:30;;;;;;;4.57;4.22;;;;;;;19.32;100.00;100648.75;4921207;29;20631;-79
2023/07/16 00:50:56;;;;;;;1.38;1.00;;;;;;;19.29;100.00;100688.16;4946269;28;20305;-77
2023/07/16 00:53:23;;;;;;;1.42;1.25;;;;;;;19.33;100.00;100708.63;4920119;29;20231;-77
2023/07/16 00:55:50;;;;;;;1.88;1.40;;;;;;;19.32;100.00;100723.81;4920961;28;20238;-77
2023/07/16 00:58:17;;;;;;;1.55;1.13;;;;;;;19.32;100.00;100713.09;4936332;28;20261;-77
2023/07/16 01:00:44;;;;;;;17.63;5.78;;;;;;;19.19;100.00;100701.75;4941103;28;20246;-79
2023/07/16 01:03:14;;;;;;;1.75;1.13;;;;;;;19.08;100.00;100713.63;4929042;28;20241;-76
2023/07/16 01:05:47;;;;;;;18.98;5.70;;;;;;;19.04;100.00;100711.94;4915712;29;20229;-77
2023/07/16 01:08:14;;;;;;;1.33;1.15;;;;;;;19.01;100.00;100709.31;4955602;28;20241;-77
2023/07/16 01:10:41;;;;;;;10.20;3.58;;;;;;;18.97;100.00;100715.66;4909135;29;20233;-77
2023/07/16 01:13:08;;;;;;;1.98;1.30;;;;;;;18.98;100.00;100734.38;4932670;28;20240;-77
2023/07/16 01:15:35;;;;;;;9.05;3.67;;;;;;;19.01;100.00;100746.84;4942137;28;20704;-77
2023/07/16 01:18:04;;;;;;;2.20;1.52;;;;;;;19.03;100.00;100750.38;4944360;28;20241;-77
2023/07/16 01:20:31;;;;;;;3.75;1.75;;;;;;;18.92;100.00;100757.75;4934910;28;20253;-78
2023/07/16 01:23:09;;;;;;;1.77;1.15;;;;;;;18.79;100.00;100744.59;4927228;28;20254;-76
2023/07/16 01:25:46;;;;;;;6.10;2.63;;;;;;;18.79;100.00;100749.94;4932250;28;20261;-77
2023/07/16 01:28:44;;;;;;;1.80;1.30;;;;;;;18.88;100.00;100758.72;4933184;28;20245;-79
2023/07/16 01:31:11;;;;;;;1.58;1.17;;;;;;;18.85;100.00;100760.56;4942828;28;20233;-78
2023/07/16 01:33:41;;;;;;;2.33;1.45;;;;;;;18.85;100.00;100765.03;4935496;28;20246;-78
2023/07/16 01:36:08;;;;;;;2.95;1.92;;;;;;;18.79;100.00;100762.47;4932143;28;20241;-79
2023/07/16 01:38:36;;;;;;;3.70;2.05;;;;;;;18.84;100.00;100773.97;4937260;28;20320;-79
2023/07/16 01:41:03;;;;;;;1.88;1.30;;;;;;;18.87;100.00;100781.97;4933315;28;20623;-79
2023/07/16 01:43:29;;;;;;;1.10;0.93;;;;;;;18.86;100.00;100773.03;4946385;28;20260;-78
2023/07/16 01:45:56;;;;;;;1.80;1.15;;;;;;;18.82;100.00;100765.09;4945873;28;20241;-78
2023/07/16 01:48:29;;;;;;;1.92;1.38;;;;;;;18.79;100.00;100757.09;4943577;28;20237;-79
2023/07/16 01:50:56;;;;;;;1.20;1.02;;;;;;;18.82;100.00;100760.63;4948660;28;20308;-78
2023/07/16 01:53:23;;;;;;;1.92;1.33;;;;;;;18.86;100.00;100756.06;4921913;28;20226;-78
2023/07/16 01:55:49;;;;;;;1.55;1.08;;;;;;;18.83;100.00;100737.38;4941278;28;20465;-78
2023/07/16 01:58:16;;;;;;;1.90;1.35;;;;;;;18.82;100.00;100739.19;4943323;28;20238;-78
2023/07/16 02:00:43;;;;;;;3.83;2.25;;;;;;;18.77;100.00;100724.09;4945571;28;20225;-78
2023/07/16 02:03:10;;;;;;;1.55;1.17;;;;;;;18.74;100.00;100718.81;4945557;28;20228;-78
2023/07/16 02:05:36;;;;;;;3.75;2.22;;;;;;;18.70;100.00;100725.13;4923108;29;20288;-78
2023/07/16 02:08:03;;;;;;;1.48;1.10;;;;;;;18.72;100.00;100716.16;4939856;28;20285;-79
2023/07/16 02:10:31;;;;;;;1.67;1.23;;;;;;;18.71;100.00;100722.44;4924706;29;20241;-78
2023/07/16 02:12:57;;;;;;;1.13;0.90;;;;;;;18.72;100.00;100715.28;4944465;28;20232;-78
2023/07/16 02:15:24;;;;;;;1.48;1.30;;;;;;;18.74;100.00;100700.94;4950653;28;20225;-78
2023/07/16 02:17:51;;;;;;;2.13;1.48;;;;;;;18.73;100.00;100701.84;4940664;28;20244;-79
2023/07/16 02:20:17;;;;;;;1.58;1.20;;;;;;;18.67;100.00;100691.25;4949602;28;20243;-77
2023/07/16 02:22:44;;;;;;;3.00;1.55;;;;;;;18.64;100.00;100677.03;4934236;28;20222;-78
2023/07/16 02:25:11;;;;;;;1.80;1.13;;;;;;;18.49;100.00;100657.66;4934923;29;20253;-79
2023/07/16 02:27:38;;;;;;;4.63;2.42;;;;;;;18.44;100.00;100650.63;4938515;28;20225;-78
2023/07/16 02:30:06;;;;;;;2.05;1.45;;;;;;;18.30;100.00;100648.22;4946142;28;20243;-78
2023/07/16 02:32:33;;;;;;;3.47;1.77;;;;;;;18.37;100.00;100640.94;4934048;28;20241;-78
2023/07/16 02:35:01;;;;;;;1.85;1.27;;;;;;;18.32;100.00;100626.75;4937085;28;20234;-77
2023/07/16 02:37:28;;;;;;;2.65;1.67;;;;;;;18.26;100.00;100635.81;4942658;28;20234;-77
2023/07/16 02:39:55;;;;;;;1.70;1.17;;;;;;;18.23;100.00;100636.75;4934825;28;20244;-78
2023/07/16 02:42:22;;;;;;;1.02;0.90;;;;;;;18.21;100.00;100633.22;4943920;28;20237;-77
2023/07/16 02:44:48;;;;;;;2.60;1.42;;;;;;;18.17;100.00;100615.41;4949358;28;20623;-78
2023/07/16 02:47:15;;;;;;;1.63;1.20;;;;;;;18.04;100.00;100608.53;4951993;28;20230;-78
2023/07/16 02:49:42;;;;;;;4.30;1.92;;;;;;;18.05;100.00;100617.44;4936259;28;20715;-77
2023/07/16 02:52:09;;;;;;;1.38;1.08;;;;;;;18.11;100.00;100625.34;4948056;28;20260;-78
2023/07/16 02:54:36;;;;;;;2.70;1.75;;;;;;;18.09;100.00;100628.06;4929341;29;20289;-77
2023/07/16 02:57:03;;;;;;;1.55;1.25;;;;;;;18.07;100.00;100621.84;4951057;28;20248;-78
2023/07/16 02:59:30;;;;;;;1.48;1.10;;;;;;;18.02;100.00;100617.50;4936875;29;20244;-77
2023/07/16 03:01:57;;;;;;;1.90;1.40;;;;;;;18.03;100.00;100614.78;4937936;29;20237;-77
2023/07/16 03:04:23;;;;;;;2.22;1.42;;;;;;;17.98;100.00;100613.09;4943370;29;20317;-78
2023/07/16 03:06:50;;;;;;;1.77;1.25;;;;;;;18.02;100.00;100618.38;4940121;28;20241;-77
2023/07/16 03:09:17;;;;;;;1.52;1.10;;;;;;;17.93;100.00;100615.88;4943605;28;20241;-77
2023/07/16 03:11:44;;;;;;;3.95;2.10;;;;;;;17.93;100.00;100626.56;4938419;28;20225;-77
2023/07/16 03:14:10;;;;;;;1.58;1.15;;;;;;;17.78;100.00;100616.16;4950353;28;20693;-77
2023/07/16 03:16:37;;;;;;;4.07;1.92;;;;;;;17.74;100.00;100611.75;4916508;29;20241;-77
2023/07/16 03:19:04;;;;;;;1.88;1.27;;;;;;;17.83;100.00;100608.91;4942625;28;20238;-77
2023/07/16 03:21:30;;;;;;;1.88;1.33;;;;;;;17.77;100.00;100612.59;4933766;28;20235;-77
2023/07/16 03:23:57;;;;;;;1.13;0.90;;;;;;;17.80;100.00;100608.97;4929005;29;20595;-77
2023/07/16 03:26:24;;;;;;;3.03;1.67;;;;;;;17.72;100.00;100594.84;4951829;28;20224;-78
2023/07/16 03:28:51;;;;;;;2.53;1.67;;;;;;;17.68;100.00;100603.84;4937482;28;20252;-77
2023/07/16 03:31:17;;;;;;;1.38;1.10;;;;;;;17.59;100.00;100596.81;4944864;28;20243;-77
2023/07/16 03:33:44;;;;;;;2.90;1.70;;;;;;;17.53;100.00;100581.75;4938799;28;20226;-77
2023/07/16 03:36:11;;;;;;;1.15;0.90;;;;;;;17.54;100.00;100575.50;4931174;28;20607;-78
2023/07/16 03:38:38;;;;;;;3.33;2.28;;;;;;;17.58;100.00;100573.66;4936908;28;20230;-77
2023/07/16 03:41:04;;;;;;;2.10;1.60;;;;;;;17.66;100.00;100579.78;4942483;28;20226;-77
2023/07/16 03:43:31;;;;;;;2.60;1.73;;;;;;;17.71;100.00;100588.63;4938393;28;20367;-77
2023/07/16 03:45:58;;;;;;;1.67;1.27;;;;;;;17.68;100.00;100572.63;4945644;28;20235;-77
2023/07/16 03:48:24;;;;;;;1.85;1.20;;;;;;;17.55;100.00;100566.59;4941543;29;20222;-77
2023/07/16 03:50:51;;;;;;;1.73;1.23;;;;;;;17.63;100.00;100562.88;4940232;28;20333;-78
2023/07/16 03:53:18;;;;;;;1.85;1.30;;;;;;;17.64;100.00;100578.91;4941982;28;20228;-77
2023/07/16 03:55:44;;;;;;;2.85;1.83;;;;;;;17.65;100.00;100574.44;4934652;28;20327;-78
2023/07/16 03:58:11;;;;;;;2.10;1.40;;;;;;;17.65;100.00;100582.47;4923294;28;20229;-78
2023/07/16 04:00:38;;;;;;;3.53;1.70;;;;;;;17.56;100.00;100576.38;4941233;28;20221;-77
2023/07/16 04:03:04;;;;;;;1.50;1.17;;;;;;;17.56;100.00;100578.16;4943862;28;20244;-78
2023/07/16 04:05:31;;;;;;;1.88;1.25;;;;;;;17.53;100.00;100579.09;4933734;28;20233;-78
2023/07/16 04:07:58;;;;;;;1.55;1.15;;;;;;;17.54;100.00;100574.63;4932061;28;20245;-78
2023/07/16 04:10:24;;;;;;;1.77;1.38;;;;;;;17.55;100.00;100576.41;4946039;28;20238;-78
2023/07/16 04:12:51;;;;;;;1.58;1.10;;;;;;;17.54;100.00;100579.97;4921979;28;20242;-78
2023/07/16 04:15:18;;;;;;;1.85;1.40;;;;;;;17.52;100.00;100576.44;4952227;28;20252;-77
2023/07/16 04:17:44;;;;;;;2.92;1.77;;;;;;;17.58;100.00;100579.91;4945738;28;20241;-79
2023/07/16 04:20:11;;;;;;;1.83;1.23;;;;;;;17.56;100.00;100572.81;4950915;28;20253;-77
2023/07/16 04:22:38;;;;;;;2.90;1.88;;;;;;;17.55;100.00;100574.59;4926154;28;20226;-78
2023/07/16 04:25:06;;;;;;;1.80;1.27;;;;;;;17.55;100.00;100565.69;4937235;28;20257;-78
2023/07/16 04:27:32;;;;;;;3.72;1.90;;;;;;;17.45;100.00;100570.31;4938328;28;20242;-78
2023/07/16 04:29:59;;;;;;;2.13;1.50;;;;;;;17.40;100.00;100564.16;4946655;28;20320;-78
2023/07/16 04:32:25;;;;;;;1.67;1.38;;;;;;;17.47;100.00;100563.16;4949168;28;20222;-77
2023/07/16 04:34:52;;;;;;;1.55;1.20;;;;;;;17.45;100.00;100561.41;4939583;28;20257;-77
2023/07/16 04:37:19;;;;;;;1.33;1.08;;;;;;;17.43;100.00;100564.13;4944561;28;20226;-78
2023/07/16 04:39:46;;;;;;;2.75;1.83;;;;;;;17.45;100.00;100562.31;4926696;28;20230;-78
2023/07/16 04:42:12;;;;;;;1.88;1.27;;;;;;;17.47;100.00;100565.84;4948742;28;20595;-77
2023/07/16 04:44:39;;;;;;;3.67;2.00;;;;;;;17.38;100.00;100565.09;4947266;28;20291;-78
2023/07/16 04:47:06;;;;;;;2.05;1.25;;;;;;;17.30;100.00;100575.91;4945010;28;20240;-78
2023/07/16 04:49:35;;;;;;;2.10;1.58;;;;;;;17.32;100.00;100578.56;4942951;28;20697;-79
2023/07/16 04:52:02;;;;;;;1.95;1.30;;;;;;;17.41;100.00;100573.06;4940242;29;20697;-78
2023/07/16 04:54:29;;;;;;;1.10;0.90;;;;;;;17.34;100.00;100580.31;4923719;28;20225;-78
2023/07/16 04:56:56;;;;;;;1.77;1.30;;;;;;;17.43;100.00;100584.63;4927451;29;20705;-78
2023/07/16 04:59:22;;;;;;;1.85;1.35;;;;;;;17.47;100.00;100589.00;4940082;28;20233;-78
2023/07/16 05:01:49;;;;;;;2.40;1.67;;;;;;;17.43;100.00;100595.31;4934744;28;20678;-78
2023/07/16 05:04:16;;;;;;;2.90;1.73;;;;;;;17.45;100.00;100590.81;4941380;28;20309;-77
2023/07/16 05:06:46;;;;;;;3.45;1.98;;;;;;;17.49;100.00;100593.44;4943099;28;20726;-78
2023/07/16 05:09:13;;;;;;;1.52;1.23;;;;;;;17.44;100.00;100586.38;4944061;28;20234;-77
2023/07/16 05:11:39;;;;;;;2.45;1.58;;;;;;;17.50;100.00;100583.63;4940745;28;20268;-77
2023/07/16 05:14:06;;;;;;;1.75;1.20;;;;;;;17.48;100.00;100590.78;4927633;29;20223;-78
2023/07/16 05:16:33;;;;;;;3.15;1.77;;;;;;;17.48;100.00;100599.69;4937760;28;20234;-77
2023/07/16 05:19:00;;;;;;;1.38;1.17;;;;;;;17.47;100.00;100597.91;4945470;28;20237;-75
2023/07/16 05:21:26;;;;;;;2.17;1.60;;;;;;;17.49;100.00;100600.56;4944448;28;20226;-75
2023/07/16 05:23:53;;;;;;;1.38;1.08;;;;;;;17.51;100.00;100601.41;4942887;28;20233;-76
2023/07/16 05:26:20;;;;;;;1.33;1.00;;;;;;;17.57;100.00;100591.50;4927852;29;20225;-75
2023/07/16 05:28:46;;;;;;;1.30;1.17;;;;;;;17.62;100.00;100593.22;4940529;28;20238;-75
2023/07/16 05:31:13;;;;;;;1.00;0.90;;;;;;;17.68;100.00;100601.16;4940071;28;20218;-75
2023/07/16 05:33:40;;;;;;;2.33;1.58;;;;;;;17.73;100.00;100594.81;4934308;29;20282;-75
2023/07/16 05:36:07;;;;;;;1.13;0.95;;;;;;;17.78;100.00;100592.06;4941346;28;20240;-76
2023/07/16 05:38:33;;;;;;;1.77;1.33;;;;;;;17.88;100.00;100596.34;4938950;29;20230;-77
2023/07/16 05:41:04;;;;;;;0.77;0.77;;;;;;;18.01;100.00;100602.34;4933304;28;20240;-75
2023/07/16 05:43:32;;;;;;;0.82;0.70;;;;;;;17.92;100.00;100592.69;4932410;28;20226;-74
2023/07/16 05:45:59;;;;;;;0.63;0.63;;;;;;;17.95;100.00;100573.91;4944478;28;20241;-76
2023/07/16 05:48:25;;;;;;;1.00;0.90;;;;;;;17.98;100.00;100564.94;4940755;29;20300;-76
2023/07/16 05:50:52;;;;;;;0.70;0.70;;;;;;;18.05;100.00;100571.94;4943588;28;20252;-76
2023/07/16 05:53:19;;;;;;;0.70;0.70;;;;;;;18.16;100.00;100575.28;4924396;29;20284;-79
2023/07/16 05:55:46;;;;;;;1.17;1.00;;;;;;;18.23;100.00;100569.81;4941747;28;20233;-76
2023/07/16 05:58:12;;;;;;;0.90;0.70;;;;;;;18.27;100.00;100551.91;4943734;28;20234;-77
2023/07/16 06:00:40;;;;;;;1.90;1.05;;;;;;;18.39;100.00;100561.47;4932848;28;20226;-76
2023/07/16 06:03:07;;;;;;;0.32;0.32;;;;;;;18.36;100.00;100541.00;4939880;28;20235;-78
2023/07/16 06:05:36;;;;;;;2.90;1.35;;;;;;;18.46;100.00;100547.91;4931263;28;20685;-76
2023/07/16 06:08:03;;;;;;;0.30;0.30;;;;;;;18.46;100.00;100528.28;4925198;28;20753;-77
2023/07/16 06:10:34;;;;;;;0.57;0.57;;;;;;;18.61;100.00;100536.03;4936011;28;20230;-76
2023/07/16 06:13:01;;;;;;;0.60;0.60;;;;;;;18.73;100.00;100541.09;4922129;29;20240;-76
2023/07/16 06:15:27;;;;;;;0.40;0.40;;;;;;;18.74;100.00;100531.28;4947384;28;20236;-77
2023/07/16 06:17:54;;;;;;;0.50;0.50;;;;;;;18.82;100.00;100540.88;4939289;28;20229;-80
2023/07/16 06:20:21;;;;;;;0.60;0.60;;;;;;;18.73;100.00;100519.66;4924984;28;20233;-77
2023/07/16 06:22:48;;;;;;;1.35;1.13;;;;;;;18.74;100.00;100512.50;4939887;28;20233;-80
2023/07/16 06:25:15;;;;;;;0.80;0.80;;;;;;;18.72;100.00;100500.94;4928060;28;20312;-77
2023/07/16 06:27:41;;;;;;;3.60;1.65;;;;;;;18.69;100.00;100509.06;4940422;28;20693;-78
2023/07/16 06:30:08;;;;;;;0.57;0.55;;;;;;;18.86;100.00;100515.78;4947586;28;20289;-78
2023/07/16 06:32:35;;;;;;;2.25;1.30;;;;;;;18.64;100.00;100484.19;4923941;29;20737;-79
2023/07/16 06:37:39;;;;;;;2.65;1.55;;;;;;;18.90;100.00;100497.84;4912516;28;20247;-75
2023/07/16 06:40:07;;;;;;;0.80;0.70;;;;;;;19.07;100.00;100492.06;4912836;29;20226;-77
2023/07/16 06:42:34;;;;;;;2.55;1.58;;;;;;;19.00;100.00;100472.56;4910412;29;20226;-76
2023/07/16 06:45:01;;;;;;;0.70;0.60;;;;;;;19.00;100.00;100459.19;4923686;29;20231;-76
2023/07/16 06:47:28;;;;;;;1.17;0.88;;;;;;;19.23;100.00;100473.78;4919087;29;20222;-78
2023/07/16 06:49:54;;;;;;;0.40;0.40;;;;;;;19.31;100.00;100455.69;4917481;29;20245;-76
2023/07/16 06:52:22;;;;;;;1.10;1.00;;;;;;;19.33;100.00;100440.44;4919530;29;20238;-75
2023/07/16 06:54:49;;;;;;;1.05;0.77;;;;;;;19.49;100.00;100453.41;4916260;29;20396;-74
2023/07/16 06:57:16;;;;;;;0.60;0.60;;;;;;;19.49;100.00;100431.94;4919539;29;20233;-75
2023/07/16 06:59:42;;;;;;;2.28;1.10;;;;;;;19.59;100.00;100419.22;4915125;29;20234;-77
2023/07/16 07:02:09;;;;;;;0.60;0.55;;;;;;;19.55;100.00;100381.81;4913749;29;20237;-76
2023/07/16 07:04:35;;;;;;;1.55;1.05;;;;;;;19.60;100.00;100378.06;4911615;29;20230;-75
2023/07/16 07:07:02;;;;;;;0.73;0.63;;;;;;;19.77;100.00;100382.94;4918269;29;20230;-75
2023/07/16 07:09:29;;;;;;;0.65;0.60;;;;;;;19.80;100.00;100381.03;4911417;29;20241;-75
2023/07/16 07:11:56;;;;;;;1.20;0.90;;;;;;;19.90;100.00;100367.34;4912225;29;20254;-75
2023/07/16 07:14:23;;;;;;;0.70;0.60;;;;;;;20.01;100.00;100363.41;4921347;29;20238;-75
2023/07/16 07:16:49;;;;;;;0.73;0.60;;;;;;;19.86;100.00;100354.94;4915712;29;20277;-76
2023/07/16 07:19:16;;;;;;;1.02;0.93;;;;;;;20.13;100.00;100379.16;4920269;29;20800;-76
2023/07/16 07:21:43;;;;;;;1.75;1.15;;;;;;;20.08;100.00;100342.63;4916052;29;20226;-76
2023/07/16 07:24:10;;;;;;;1.00;0.90;;;;;;;20.05;100.00;100361.50;4915912;29;20234;-75
2023/07/16 07:26:36;;;;;;;3.13;1.30;;;;;;;20.25;100.00;100358.19;4912266;29;20235;-76
2023/07/16 07:29:03;;;;;;;0.93;0.80;;;;;;;20.11;100.00;100321.06;4920228;29;20279;-75
2023/07/16 07:31:30;;;;;;;0.68;0.68;;;;;;;19.94;100.00;100292.06;4916346;29;20229;-74
2023/07/16 07:33:59;;;;;;;0.63;0.63;;;;;;;20.38;100.00;100313.91;4906490;29;20230;-76
2023/07/16 07:36:27;;;;;;;0.73;0.73;;;;;;;20.47;100.00;100326.19;4959760;23;20242;-80
2023/07/16 07:38:53;;;;;;;0.57;0.57;;;;;;;20.81;100.00;100358.19;4926795;28;20245;-81
2023/07/16 07:41:20;;;;;;;0.68;0.68;;;;;;;20.68;100.00;100306.66;4938897;29;20233;-80
2023/07/16 07:43:47;;;;;;;1.55;1.08;;;;;;;20.37;100.00;100253.94;4916921;28;20237;-80
2023/07/16 07:46:14;;;;;;;0.50;0.50;;;;;;;20.04;100.00;100221.03;4924760;29;20227;-81
2023/07/16 07:48:41;;;;;;;2.08;1.15;;;;;;;20.18;100.00;100252.81;4923040;29;20230;-82
2023/07/16 07:51:08;;;;;;;0.70;0.70;;;;;;;20.05;100.00;100219.25;4924416;28;20233;-79
2023/07/16 07:53:34;;;;;;;2.03;1.17;;;;;;;20.05;100.00;100244.28;4922105;29;20372;-80
2023/07/16 07:56:01;;;;;;;0.50;0.50;;;;;;;20.29;100.00;100244.38;4920993;29;20242;-81
2023/07/16 07:58:28;;;;;;;1.65;1.20;;;;;;;20.60;100.00;100255.00;4920848;29;20230;-78
2023/07/16 08:00:54;;;;;;;1.00;0.90;;;;;;;20.78;100.00;100267.78;4914579;29;20254;-81
2023/07/16 08:03:21;;;;;;;0.75;0.70;;;;;;;20.82;100.00;100247.97;4919459;29;20222;-81
2023/07/16 08:05:49;;;;;;;2.05;1.02;;;;;;;20.62;100.00;100208.31;4919913;29;20242;-80
2023/07/16 08:08:16;;;;;;;0.40;0.40;;;;;;;20.73;100.00;100211.50;4925887;28;20270;-81
2023/07/16 08:10:43;;;;;;;1.58;1.38;;;;;;;21.06;100.00;100230.94;4922226;29;20230;-81
2023/07/16 08:13:09;;;;;;;1.02;0.93;;;;;;;21.13;100.00;100210.06;4924881;29;20226;-83
2023/07/16 08:15:36;;;;;;;2.13;1.42;;;;;;;21.18;100.00;100202.69;4921261;28;20564;-80
2023/07/16 08:18:03;;;;;;;0.50;0.50;;;;;;;21.35;100.00;100197.56;4924422;29;20236;-79
2023/07/16 08:20:30;;;;;;;0.57;0.57;;;;;;;21.10;100.00;100148.34;4923672;29;20218;-80
2023/07/16 08:22:57;;;;;;;0.43;0.43;;;;;;;20.86;100.00;100133.16;4927773;29;20229;-81
2023/07/16 08:25:24;;;;;;;0.57;0.57;;;;;;;20.56;100.00;100071.53;4929951;28;20232;-81
2023/07/16 08:27:50;;;;;;;0.93;0.80;;;;;;;20.66;100.00;100064.88;4929365;28;20253;-81
2023/07/16 08:30:17;;;;;;;0.63;0.60;;;;;;;20.61;100.00;100080.28;4923595;29;20225;-81
2023/07/16 08:32:44;;;;;;;1.48;1.00;;;;;;;21.38;100.00;100157.09;4905683;29;20715;-79
2023/07/16 08:37:47;;;;;;;1.88;1.23;;;;;;;21.68;100.00;100065.31;4915577;28;20230;-75
2023/07/16 08:40:14;;;;;;;0.50;0.50;;;;;;;22.09;100.00;100121.91;4928121;29;20260;-77
2023/07/16 08:42:49;;;;;;;1.70;1.00;;;;;;;22.10;100.00;100081.44;4922793;29;20240;-77
2023/07/16 08:45:22;;;;;;;0.55;0.52;;;;;;;21.62;100.00;100003.69;4930447;29;20256;-80
2023/07/16 08:47:49;;;;;;;1.30;0.85;;;;;;;21.50;100.00;99994.31;4931329;29;22873;-77
2023/07/16 08:50:16;;;;;;;0.40;0.40;;;;;;;21.65;100.00;100014.31;4936219;29;20294;-77
2023/07/16 08:52:44;;;;;;;3.40;1.58;;;;;;;22.19;100.00;100058.66;4921253;29;20231;-77
2023/07/16 08:55:10;;;;;;;0.60;0.60;;;;;;;22.58;100.00;100081.09;4925818;29;20650;-76
2023/07/16 08:57:38;;;;;;;8.68;3.80;;;;;;;22.93;100.00;100106.47;4911307;28;20226;-76
2023/07/16 09:00:06;;;;;;;0.90;0.80;;;;;;;22.79;100.00;100028.00;4920079;28;20253;-75
2023/07/16 09:02:33;;;;;;;2.42;1.08;;;;;;;22.61;100.00;99945.34;4905826;29;20246;-76
2023/07/16 09:05:00;;;;;;;0.95;0.73;;;;;;;23.02;100.00;100008.06;4922558;29;20226;-77
2023/07/16 09:07:27;;;;;;;0.65;0.52;;;;;;;23.47;100.00;100058.91;4924191;29;20733;-78
2023/07/16 09:09:58;;;;;;;0.70;0.60;;;;;;;23.11;100.00;99893.44;4918306;29;20236;-77
2023/07/16 09:12:26;;;;;;;0.75;0.68;;;;;;;23.25;100.00;99907.97;4920874;29;20221;-77
2023/07/16 09:14:53;;;;;;;0.40;0.35;;;;;;;23.16;100.00;99843.72;4916247;29;20718;-78
2023/07/16 09:17:24;;;;;;;0.70;0.50;;;;;;;23.10;100.00;99845.84;4920430;29;20229;-78
2023/07/16 09:19:52;;;;;;;0.60;0.50;;;;;;;23.69;100.00;99885.06;4913765;29;20320;-78
2023/07/16 09:22:19;;;;;;;0.50;0.50;;;;;;;23.72;100.00;99920.00;4923526;29;20232;-78
2023/07/16 09:24:47;;;;;;;11.77;3.83;;;;;;;23.52;100.00;99823.84;4913028;28;20230;-77
2023/07/16 09:29:49;;;;;;;6.20;2.63;;;;;;;24.12;100.00;99859.28;5407614;23;20364;-86
2023/07/16 09:32:17;;;;;;;0.63;0.50;;;;;;;24.25;100.00;99817.97;4942907;28;20594;-82
2023/07/16 09:34:44;;;;;;;14.25;5.15;;;;;;;23.76;100.00;99706.47;4942091;28;20234;-86
2023/07/16 09:37:14;;;;;;;1.35;1.25;;;;;;;24.17;100.00;99727.53;4943640;28;20719;-84
2023/07/16 09:39:41;;;;;;;14.23;5.38;;;;;;;24.86;100.00;99840.63;4943597;28;20292;-82
2023/07/16 09:42:08;;;;;;;1.00;0.80;;;;;;;24.93;100.00;99814.97;4936501;28;20243;-82
2023/07/16 09:44:36;;;;;;;12.30;4.50;;;;;;;24.63;100.00;99800.53;5043523;23;20235;-80
2023/07/16 09:47:03;;;;;;;0.68;0.60;;;;;;;23.87;100.00;99682.41;4954585;28;20240;-81
2023/07/16 09:49:30;;;;;;;0.75;0.73;;;;;;;23.77;100.00;99646.13;4957182;28;20229;-82
2023/07/16 09:51:57;;;;;;;0.77;0.75;;;;;;;24.17;100.00;99693.28;4954160;28;20323;-82
2023/07/16 09:54:27;;;;;;;0.85;0.75;;;;;;;24.86;100.00;99760.38;4941961;28;20674;-82
2023/07/16 09:57:00;;;;;;;0.85;0.65;;;;;;;24.97;100.00;99648.84;4939026;28;20228;-82
2023/07/16 09:59:29;;;;;;;0.80;0.63;;;;;;;25.13;93.33;99598.22;4951241;28;20232;-79
2023/07/16 10:01:57;;;;;;;0.70;0.60;;;;;;;24.55;98.04;99544.19;4952006;28;20229;-78
2023/07/16 10:04:24;;;;;;;1.27;0.90;;;;;;;24.42;100.00;99537.81;4949942;28;20221;-80
2023/07/16 10:07:01;;;;;;;1.10;0.93;;;;;;;24.32;100.00;99555.56;4950115;28;20259;-80
2023/07/16 10:09:39;;;;;;;0.95;0.70;;;;;;;24.66;100.00;99549.78;4943489;28;20323;-81
2023/07/16 10:12:13;;;;;;;1.30;1.00;;;;;;;24.72;97.07;99500.78;4957607;28;20452;-80
2023/07/16 10:14:44;;;;;;;20.02;6.82;;;;;;;24.68;100.00;99522.66;4952311;28;20221;-79
2023/07/16 10:17:16;;;;;;;1.73;1.00;;;;;;;24.32;89.80;99337.56;4960168;28;20807;-79
2023/07/16 10:19:58;;;;;;;21.23;7.43;;;;;;;24.76;96.64;99458.19;4951144;28;20229;-81
2023/07/16 10:22:42;;;;;;;2.83;1.65;;;;;;;24.81;90.29;99378.50;4960785;28;20220;-79
2023/07/16 10:25:18;;;;;;;1.63;1.13;;;;;;;24.87;83.38;99301.50;4954905;28;20284;-79
2023/07/16 10:27:47;;;;;;;5.15;2.67;;;;;;;25.04;84.81;99322.91;4954558;28;20336;-82
2023/07/16 10:30:15;;;;;;;1.52;1.00;;;;;;;25.17;91.33;99401.38;4942462;28;20326;-78
2023/07/16 10:32:42;;;;;;;25.67;8.23;;;;;;;25.23;84.36;99316.22;4947772;28;20225;-80
2023/07/16 10:35:09;;;;;;;1.83;1.20;;;;;;;25.16;81.28;99257.13;4962169;28;20262;-80
2023/07/16 10:37:37;;;;;;;20.30;8.02;;;;;;;25.26;84.06;99278.13;4944655;28;20233;-80
2023/07/16 10:40:05;;;;;;;1.67;1.13;;;;;;;25.18;83.29;99248.91;4960922;28;20746;-81
2023/07/16 10:42:32;;;;;;;5.38;2.13;;;;;;;25.27;80.81;99220.34;4938333;28;20305;-81
2023/07/16 10:45:04;;;;;;;2.22;1.38;;;;;;;25.35;80.60;99215.25;4938770;28;20256;-80
2023/07/16 10:47:35;;;;;;;1.75;1.20;;;;;;;25.22;81.83;99192.75;4951985;28;20243;-81
2023/07/16 10:50:05;;;;;;;1.67;1.27;;;;;;;25.44;81.15;99201.94;4944729;28;20237;-80
2023/07/16 10:52:32;;;;;;;4.65;2.13;;;;;;;25.91;83.21;99276.19;4952104;28;20259;-80
2023/07/16 10:54:59;;;;;;;2.25;1.35;;;;;;;25.51;80.87;99154.50;4959692;28;20243;-79
2023/07/16 10:57:27;;;;;;;2.13;1.33;;;;;;;25.62;81.57;99174.50;4952992;28;20231;-79
2023/07/16 10:59:56;;;;;;;1.65;1.30;;;;;;;25.61;77.42;99105.09;4954661;28;20260;-80
2023/07/16 11:02:24;;;;;;;2.25;1.50;;;;;;;25.92;77.33;99137.06;4954868;28;20240;-80
2023/07/16 11:04:54;;;;;;;1.85;1.02;;;;;;;26.10;79.99;99164.66;4957590;28;20315;-80
2023/07/16 11:07:21;;;;;;;1.70;1.02;;;;;;;25.95;78.10;99115.16;4968591;28;20232;-80
2023/07/16 11:09:53;;;;;;;24.67;7.53;;;;;;;26.21;80.31;99147.59;4964687;28;20275;-79
2023/07/16 11:12:24;;;;;;;1.67;1.23;;;;;;;26.42;78.97;99176.66;4963452;28;20229;-80
2023/07/16 11:14:55;;;;;;;4.47;1.60;;;;;;;25.93;72.22;99005.22;4967911;28;20322;-80
2023/07/16 11:17:24;;;;;;;2.20;1.23;;;;;;;25.89;76.84;99045.22;4955890;28;20315;-80
2023/07/16 11:19:53;;;;;;;1.70;1.00;;;;;;;26.67;76.60;99139.53;4956877;28;20240;-80
2023/07/16 11:22:19;;;;;;;1.65;1.08;;;;;;;26.12;74.38;99002.84;4953466;28;20314;-79
2023/07/16 11:24:48;;;;;;;18.15;5.78;;;;;;;26.99;73.02;99116.19;4953534;28;20235;-80
2023/07/16 11:27:31;;;;;;;2.72;1.50;;;;;;;27.05;72.32;99082.28;4973995;28;20235;-81
2023/07/16 11:30:01;;;;;;;1.88;1.08;;;;;;;26.75;67.17;98960.81;4958749;28;20264;-80